Time;durP1;ratioP1;P1;durP2;ratioP2;P2;SDS_P1;SDS_P2;PMS_P1;PMS_P2;Temp;Humidity;BMP_temperature;BMP_pressure;BME280_temperature;BME280_humidity;BME280_pressure;Samples;Min_cycle;Max_cycle;Signal;HPM_P1;HPM_P2
2021/11/13 00:02:17;;;;;;;44.20;18.33;;;;;;;;;;5036957;28;20052;-57
2021/11/13 00:04:43;;;;;;;45.55;19.30;;;;;;;;;;5016714;28;22090;-56
2021/11/13 00:07:13;;;;;;;47.78;18.25;;;;;;;;;;5037603;28;20037;-58
2021/11/13 00:09:39;;;;;;;52.00;19.85;;;;;;;;;;5039427;28;20032;-56
2021/11/13 00:12:05;;;;;;;49.70;19.70;;;;;;;;;;5035793;28;20040;-56
2021/11/13 00:14:31;;;;;;;43.58;18.90;;;;;;;;;;5041659;28;20194;-57
2021/11/13 00:17:02;;;;;;;47.70;18.80;;;;;;;;;;5034681;28;21339;-58
2021/11/13 00:19:33;;;;;;;50.83;18.60;;;;;;;;;;5035266;28;20044;-57
2021/11/13 00:22:01;;;;;;;51.47;18.27;;;;;;;;;;5035931;28;20387;-57
2021/11/13 00:24:29;;;;;;;54.00;20.48;;;;;;;;;;5036665;28;20028;-57
2021/11/13 00:26:55;;;;;;;47.53;19.33;;;;;;;;;;5033816;28;20047;-57
2021/11/13 00:29:23;;;;;;;51.22;19.45;;;;;;;;;;5035776;28;20041;-56
2021/11/13 00:31:54;;;;;;;48.13;20.02;;;;;;;;;;5036961;28;20036;-56
2021/11/13 00:34:22;;;;;;;47.38;19.55;;;;;;;;;;5050693;28;20547;-57
2021/11/13 00:36:49;;;;;;;47.75;18.90;;;;;;;;;;5035860;28;20037;-56
2021/11/13 00:39:15;;;;;;;57.58;20.38;;;;;;;;;;5031303;28;20041;-56
2021/11/13 00:41:43;;;;;;;49.40;19.55;;;;;;;;;;5034640;28;20055;-56
2021/11/13 00:44:11;;;;;;;53.00;20.05;;;;;;;;;;5018603;28;20138;-55
2021/11/13 00:46:36;;;;;;;47.55;22.00;;;;;;;;;;5050576;28;21024;-62
2021/11/13 00:49:02;;;;;;;46.88;19.23;;;;;;;;;;5034374;28;20100;-56
2021/11/13 00:51:28;;;;;;;56.60;19.88;;;;;;;;;;5037133;28;21917;-57
2021/11/13 00:53:53;;;;;;;49.70;21.02;;;;;;;;;;5042132;28;20082;-57
2021/11/13 00:56:19;;;;;;;45.08;20.13;;;;;;;;;;5063614;28;20128;-56
2021/11/13 00:58:44;;;;;;;53.60;20.77;;;;;;;;;;5078188;28;20092;-56
2021/11/13 01:01:09;;;;;;;49.28;20.23;;;;;;;;;;5073851;28;20118;-58
2021/11/13 01:03:37;;;;;;;55.20;19.95;;;;;;;;;;5075439;28;20500;-56
2021/11/13 01:06:05;;;;;;;44.03;20.20;;;;;;;;;;5071687;28;20032;-55
2021/11/13 01:08:33;;;;;;;46.45;19.85;;;;;;;;;;5074563;28;20046;-56
2021/11/13 01:11:02;;;;;;;49.08;18.83;;;;;;;;;;5076089;28;20036;-56
2021/11/13 01:13:30;;;;;;;44.53;18.27;;;;;;;;;;5072363;28;20066;-57
2021/11/13 01:16:03;;;;;;;49.00;19.45;;;;;;;;;;5072514;28;20027;-57
2021/11/13 01:18:31;;;;;;;48.03;18.92;;;;;;;;;;5074681;28;20028;-57
2021/11/13 01:20:58;;;;;;;47.45;20.33;;;;;;;;;;5075954;28;20043;-58
2021/11/13 01:23:24;;;;;;;41.95;18.50;;;;;;;;;;5075149;28;20414;-57
2021/11/13 01:25:49;;;;;;;51.25;18.60;;;;;;;;;;5090142;27;20028;-57
2021/11/13 01:28:17;;;;;;;41.53;18.27;;;;;;;;;;5070277;28;20032;-56
2021/11/13 01:30:45;;;;;;;45.97;18.88;;;;;;;;;;5089309;27;20191;-56
2021/11/13 01:33:11;;;;;;;43.13;18.15;;;;;;;;;;5076015;28;22020;-57
2021/11/13 01:35:36;;;;;;;39.65;18.10;;;;;;;;;;5080984;28;20047;-56
2021/11/13 01:38:02;;;;;;;39.80;17.27;;;;;;;;;;5083813;28;20132;-58
2021/11/13 01:40:30;;;;;;;42.08;18.17;;;;;;;;;;5076177;28;20035;-56
2021/11/13 01:42:56;;;;;;;44.90;18.13;;;;;;;;;;5055638;28;20051;-58
2021/11/13 01:45:25;;;;;;;43.42;18.17;;;;;;;;;;5076547;28;20943;-56
2021/11/13 01:47:51;;;;;;;46.20;18.83;;;;;;;;;;5075590;28;20098;-57
2021/11/13 01:50:21;;;;;;;42.25;18.42;;;;;;;;;;5074328;28;20036;-57
2021/11/13 01:52:47;;;;;;;38.65;18.15;;;;;;;;;;5078984;28;20028;-58
2021/11/13 01:55:16;;;;;;;46.08;19.48;;;;;;;;;;5075793;28;20067;-58
2021/11/13 01:57:48;;;;;;;48.65;19.85;;;;;;;;;;5079943;28;20067;-57
2021/11/13 02:00:23;;;;;;;44.88;19.05;;;;;;;;;;5081629;28;20093;-58
2021/11/13 02:02:51;;;;;;;55.92;20.17;;;;;;;;;;5076086;28;20019;-58
2021/11/13 02:05:19;;;;;;;44.30;19.33;;;;;;;;;;5075283;28;20031;-58
2021/11/13 02:07:44;;;;;;;42.53;17.58;;;;;;;;;;5073969;28;20032;-58
2021/11/13 02:10:10;;;;;;;49.60;20.13;;;;;;;;;;5075444;28;20371;-56
2021/11/13 02:12:36;;;;;;;43.38;18.85;;;;;;;;;;5081450;28;20069;-58
2021/11/13 02:15:05;;;;;;;47.78;19.00;;;;;;;;;;5075895;28;20045;-58
2021/11/13 02:17:30;;;;;;;40.45;17.08;;;;;;;;;;5073790;28;20039;-56
2021/11/13 02:19:56;;;;;;;45.60;17.55;;;;;;;;;;5076369;28;20035;-59
2021/11/13 02:22:23;;;;;;;37.35;16.98;;;;;;;;;;5055951;28;20039;-58
2021/11/13 02:24:48;;;;;;;39.35;17.42;;;;;;;;;;5056629;28;20069;-57
2021/11/13 02:27:13;;;;;;;36.28;17.58;;;;;;;;;;5078097;28;20036;-57
2021/11/13 02:29:44;;;;;;;31.40;16.02;;;;;;;;;;5080407;28;20028;-57
2021/11/13 02:32:10;;;;;;;36.65;16.83;;;;;;;;;;5062756;28;20443;-58
2021/11/13 02:34:38;;;;;;;32.85;15.60;;;;;;;;;;5066372;28;20040;-58
2021/11/13 02:37:08;;;;;;;40.97;17.10;;;;;;;;;;5080155;28;20086;-56
2021/11/13 02:39:35;;;;;;;37.28;17.05;;;;;;;;;;5093138;27;20824;-57
2021/11/13 02:42:03;;;;;;;38.45;17.30;;;;;;;;;;5077714;28;21010;-56
2021/11/13 02:44:30;;;;;;;40.03;17.60;;;;;;;;;;5080137;28;20491;-57
2021/11/13 02:46:56;;;;;;;33.60;16.92;;;;;;;;;;5085070;28;20023;-56
2021/11/13 02:49:21;;;;;;;37.00;16.60;;;;;;;;;;5064231;28;20097;-57
2021/11/13 02:51:48;;;;;;;57.70;16.48;;;;;;;;;;5078944;27;20062;-58
2021/11/13 02:54:15;;;;;;;33.28;15.25;;;;;;;;;;5058215;28;20024;-57
2021/11/13 02:56:44;;;;;;;39.80;15.13;;;;;;;;;;5080083;28;20036;-58
2021/11/13 02:59:09;;;;;;;31.60;14.50;;;;;;;;;;5093790;27;20070;-58
2021/11/13 03:01:37;;;;;;;37.97;15.25;;;;;;;;;;5079127;28;20032;-58
2021/11/13 03:04:05;;;;;;;35.95;15.40;;;;;;;;;;5075063;28;20047;-59
2021/11/13 03:06:33;;;;;;;27.83;13.38;;;;;;;;;;5068368;28;20035;-58
2021/11/13 03:08:58;;;;;;;30.77;14.25;;;;;;;;;;5093336;27;20039;-58
2021/11/13 03:11:23;;;;;;;30.48;12.98;;;;;;;;;;5078275;28;20043;-60
2021/11/13 03:13:53;;;;;;;30.33;13.88;;;;;;;;;;5075125;28;20519;-59
2021/11/13 03:16:21;;;;;;;29.23;13.55;;;;;;;;;;5078397;28;20032;-58
2021/11/13 03:18:49;;;;;;;30.00;13.00;;;;;;;;;;5079886;28;20085;-58
2021/11/13 03:21:24;;;;;;;27.92;13.10;;;;;;;;;;5077051;27;20024;-59
2021/11/13 03:23:50;;;;;;;27.42;13.35;;;;;;;;;;5091172;27;20089;-59
2021/11/13 03:26:20;;;;;;;31.55;13.15;;;;;;;;;;5059655;28;20032;-58
2021/11/13 03:28:51;;;;;;;22.77;11.65;;;;;;;;;;5076185;27;20115;-59
2021/11/13 03:31:16;;;;;;;24.98;12.85;;;;;;;;;;5075559;27;20113;-59
2021/11/13 03:33:44;;;;;;;26.88;12.23;;;;;;;;;;5066789;28;20023;-58
2021/11/13 03:36:10;;;;;;;25.27;12.60;;;;;;;;;;5075560;27;20054;-59
2021/11/13 03:38:36;;;;;;;27.45;13.48;;;;;;;;;;5075370;28;20471;-59
2021/11/13 03:41:04;;;;;;;21.33;11.98;;;;;;;;;;5076229;28;20039;-60
2021/11/13 03:43:33;;;;;;;25.48;13.55;;;;;;;;;;5076203;28;20031;-59
2021/11/13 03:46:02;;;;;;;27.73;14.52;;;;;;;;;;5079677;28;20654;-59
2021/11/13 03:48:30;;;;;;;23.30;12.90;;;;;;;;;;5089858;27;20036;-59
2021/11/13 03:50:55;;;;;;;25.40;13.68;;;;;;;;;;5082044;28;20046;-58
2021/11/13 03:53:24;;;;;;;24.10;12.75;;;;;;;;;;5075441;28;20047;-58
2021/11/13 03:55:50;;;;;;;26.50;12.35;;;;;;;;;;5084454;28;20800;-59
2021/11/13 03:58:15;;;;;;;24.10;12.98;;;;;;;;;;5076144;28;20052;-59
2021/11/13 04:00:40;;;;;;;36.97;13.63;;;;;;;;;;5065365;28;20028;-59
2021/11/13 04:03:06;;;;;;;25.45;12.93;;;;;;;;;;5074486;27;20099;-60
2021/11/13 04:05:37;;;;;;;27.95;13.15;;;;;;;;;;5077050;28;20032;-60
2021/11/13 04:08:03;;;;;;;31.30;14.15;;;;;;;;;;5077939;28;20424;-59
2021/11/13 04:10:29;;;;;;;31.33;14.18;;;;;;;;;;5080307;28;20036;-58
2021/11/13 04:13:00;;;;;;;27.20;13.90;;;;;;;;;;5077562;28;20035;-59
2021/11/13 04:15:30;;;;;;;28.33;13.80;;;;;;;;;;5076560;27;20072;-59
2021/11/13 04:17:59;;;;;;;29.85;14.55;;;;;;;;;;5076276;28;20031;-59
2021/11/13 04:20:26;;;;;;;26.35;14.45;;;;;;;;;;5059610;28;20027;-57
2021/11/13 04:22:52;;;;;;;33.45;14.95;;;;;;;;;;5077192;28;20077;-59
2021/11/13 04:25:24;;;;;;;32.17;15.07;;;;;;;;;;5075643;27;20043;-59
2021/11/13 04:27:54;;;;;;;27.65;14.10;;;;;;;;;;5080405;28;20044;-59
2021/11/13 04:30:22;;;;;;;31.10;15.48;;;;;;;;;;5078714;28;20048;-58
2021/11/13 04:32:48;;;;;;;33.35;14.75;;;;;;;;;;5075178;28;20027;-59
2021/11/13 04:38:03;;;;;;;39.20;16.40;;;;;;;;;;5074810;28;20031;-58
2021/11/13 04:40:33;;;;;;;34.20;15.57;;;;;;;;;;5075396;27;20093;-60
2021/11/13 04:43:04;;;;;;;39.55;17.27;;;;;;;;;;5075042;28;20027;-61
2021/11/13 04:45:34;;;;;;;31.15;15.18;;;;;;;;;;5076409;28;20036;-59
2021/11/13 04:47:59;;;;;;;34.13;17.30;;;;;;;;;;5076226;28;20036;-59
2021/11/13 04:50:29;;;;;;;35.53;16.63;;;;;;;;;;5074135;28;20125;-59
2021/11/13 04:52:59;;;;;;;35.67;16.98;;;;;;;;;;5075408;28;20115;-60
2021/11/13 04:55:30;;;;;;;39.55;16.58;;;;;;;;;;5074648;28;20130;-59
2021/11/13 04:58:00;;;;;;;32.15;16.25;;;;;;;;;;5074034;28;20648;-60
2021/11/13 05:00:34;;;;;;;42.53;17.08;;;;;;;;;;5082719;28;20043;-59
2021/11/13 05:03:02;;;;;;;34.97;16.08;;;;;;;;;;5059275;28;20055;-58
2021/11/13 05:05:32;;;;;;;30.08;16.15;;;;;;;;;;5069820;28;20019;-59
2021/11/13 05:07:58;;;;;;;31.90;16.02;;;;;;;;;;5073352;27;20697;-59
2021/11/13 05:10:25;;;;;;;36.45;17.75;;;;;;;;;;5064936;28;20036;-59
2021/11/13 05:12:51;;;;;;;38.67;17.20;;;;;;;;;;5055334;28;20036;-59
2021/11/13 05:15:20;;;;;;;35.40;17.02;;;;;;;;;;5073311;28;20092;-60
2021/11/13 05:17:52;;;;;;;35.30;16.33;;;;;;;;;;5076204;28;20032;-61
2021/11/13 05:20:20;;;;;;;36.58;16.63;;;;;;;;;;5089618;27;20032;-59
2021/11/13 05:22:46;;;;;;;39.03;17.55;;;;;;;;;;5074085;28;20396;-59
2021/11/13 05:25:16;;;;;;;38.63;18.20;;;;;;;;;;5074703;28;20042;-59
2021/11/13 05:27:46;;;;;;;31.55;15.60;;;;;;;;;;5074749;28;21050;-60
2021/11/13 05:30:15;;;;;;;34.28;16.23;;;;;;;;;;5091393;27;20044;-59
2021/11/13 05:32:40;;;;;;;40.08;18.38;;;;;;;;;;5073946;28;20655;-58
2021/11/13 05:35:10;;;;;;;35.38;15.63;;;;;;;;;;5075124;28;20139;-59
2021/11/13 05:37:38;;;;;;;36.22;16.67;;;;;;;;;;5075016;28;20177;-59
2021/11/13 05:40:10;;;;;;;36.63;16.48;;;;;;;;;;5075765;28;20051;-60
2021/11/13 05:42:41;;;;;;;42.67;18.35;;;;;;;;;;5075245;28;21063;-60
2021/11/13 05:45:10;;;;;;;36.83;17.60;;;;;;;;;;5072776;28;20524;-60
2021/11/13 05:47:36;;;;;;;40.97;16.77;;;;;;;;;;5076661;28;20027;-58
2021/11/13 05:50:05;;;;;;;39.95;18.95;;;;;;;;;;5080618;28;20053;-59
2021/11/13 05:52:31;;;;;;;43.38;19.33;;;;;;;;;;5082225;28;20024;-60
2021/11/13 05:55:31;;;;;;;39.35;18.45;;;;;;;;;;5060480;28;20044;-59
2021/11/13 05:57:59;;;;;;;39.65;18.88;;;;;;;;;;5037569;28;20033;-59
2021/11/13 06:00:29;;;;;;;47.47;20.52;;;;;;;;;;5036741;28;20487;-59
2021/11/13 06:02:56;;;;;;;45.28;19.55;;;;;;;;;;5037987;28;20869;-60
2021/11/13 06:05:24;;;;;;;55.35;19.50;;;;;;;;;;5038870;28;20060;-59
2021/11/13 06:07:52;;;;;;;45.95;19.50;;;;;;;;;;5038696;28;20033;-60
2021/11/13 06:10:18;;;;;;;53.15;20.30;;;;;;;;;;5039389;28;20506;-60
2021/11/13 06:12:49;;;;;;;42.05;19.27;;;;;;;;;;5036803;28;20025;-59
2021/11/13 06:15:19;;;;;;;51.15;19.17;;;;;;;;;;5038547;28;20675;-61
2021/11/13 06:17:46;;;;;;;55.85;21.05;;;;;;;;;;5036352;28;20037;-60
2021/11/13 06:20:12;;;;;;;48.95;19.40;;;;;;;;;;5041129;28;20044;-59
2021/11/13 06:22:57;;;;;;;40.47;18.83;;;;;;;;;;5038956;28;20082;-59
2021/11/13 06:25:40;;;;;;;53.65;19.42;;;;;;;;;;5039723;28;20056;-59
2021/11/13 06:28:25;;;;;;;45.60;20.60;;;;;;;;;;5044069;28;20431;-60
2021/11/13 06:31:10;;;;;;;51.65;19.63;;;;;;;;;;5039968;28;20681;-60
2021/11/13 06:33:56;;;;;;;44.42;20.35;;;;;;;;;;5040604;28;20044;-60
2021/11/13 06:36:43;;;;;;;50.33;19.65;;;;;;;;;;5040999;28;20053;-61
2021/11/13 06:39:28;;;;;;;44.75;19.60;;;;;;;;;;5039824;28;20117;-61
2021/11/13 06:42:12;;;;;;;57.30;21.25;;;;;;;;;;5038799;28;20125;-59
2021/11/13 06:44:58;;;;;;;51.65;20.80;;;;;;;;;;5052843;28;20075;-61
2021/11/13 06:47:42;;;;;;;49.65;20.52;;;;;;;;;;5038584;28;20044;-60
2021/11/13 06:50:30;;;;;;;46.75;20.20;;;;;;;;;;5037951;28;20130;-61
2021/11/13 06:53:14;;;;;;;46.08;18.55;;;;;;;;;;5039919;28;20075;-60
2021/11/13 06:56:00;;;;;;;45.60;19.30;;;;;;;;;;5053784;28;20459;-60
2021/11/13 06:58:48;;;;;;;46.00;19.58;;;;;;;;;;5077940;28;20461;-59
2021/11/13 07:01:32;;;;;;;42.33;19.20;;;;;;;;;;5083923;28;20031;-60
2021/11/13 07:04:18;;;;;;;50.35;19.23;;;;;;;;;;5078230;27;20096;-59
2021/11/13 07:07:05;;;;;;;52.03;19.58;;;;;;;;;;5085594;27;20050;-60
2021/11/13 07:09:51;;;;;;;45.15;18.70;;;;;;;;;;5084983;27;20043;-58
2021/11/13 07:12:35;;;;;;;42.42;19.40;;;;;;;;;;5083583;28;21076;-60
2021/11/13 07:15:24;;;;;;;43.85;18.60;;;;;;;;;;5063904;27;20545;-60
2021/11/13 07:18:10;;;;;;;42.53;19.38;;;;;;;;;;5082890;27;20128;-58
2021/11/13 07:20:56;;;;;;;42.20;18.88;;;;;;;;;;5081336;27;20132;-59
2021/11/13 07:23:39;;;;;;;41.25;18.58;;;;;;;;;;5077751;27;20062;-59
2021/11/13 07:26:24;;;;;;;41.55;18.70;;;;;;;;;;5080768;27;20059;-59
2021/11/13 07:29:13;;;;;;;37.92;16.73;;;;;;;;;;5075516;28;20120;-60
2021/11/13 07:31:59;;;;;;;39.15;17.90;;;;;;;;;;5073585;28;20050;-59
2021/11/13 07:34:46;;;;;;;45.22;18.15;;;;;;;;;;5076720;28;20043;-61
2021/11/13 07:37:32;;;;;;;47.83;17.65;;;;;;;;;;5079095;27;22055;-60
2021/11/13 07:40:20;;;;;;;37.45;19.38;;;;;;;;;;5074758;28;20489;-59
2021/11/13 07:43:04;;;;;;;39.50;18.60;;;;;;;;;;5077883;28;20047;-60
2021/11/13 07:45:48;;;;;;;40.13;16.73;;;;;;;;;;5076906;27;20046;-59
2021/11/13 07:48:35;;;;;;;35.13;16.98;;;;;;;;;;5076491;28;20152;-60
2021/11/13 07:51:20;;;;;;;36.65;17.23;;;;;;;;;;5067565;28;20637;-59
2021/11/13 07:54:04;;;;;;;44.25;17.05;;;;;;;;;;5077321;28;20579;-60
2021/11/13 07:56:51;;;;;;;41.38;16.33;;;;;;;;;;5077324;28;20236;-61
2021/11/13 07:59:40;;;;;;;39.67;17.20;;;;;;;;;;5082115;27;20088;-59
2021/11/13 08:02:27;;;;;;;41.08;16.92;;;;;;;;;;5075559;27;21038;-61
2021/11/13 08:05:12;;;;;;;39.92;17.95;;;;;;;;;;5076761;28;20070;-61
2021/11/13 08:07:59;;;;;;;36.63;16.67;;;;;;;;;;5076937;28;20043;-61
2021/11/13 08:10:45;;;;;;;31.63;15.30;;;;;;;;;;5078038;27;20612;-61
2021/11/13 08:13:30;;;;;;;33.63;16.05;;;;;;;;;;5077194;28;20047;-61
2021/11/13 08:16:17;;;;;;;36.85;17.63;;;;;;;;;;5075415;28;20039;-60
2021/11/13 08:19:03;;;;;;;29.40;14.50;;;;;;;;;;5071763;28;20526;-60
2021/11/13 08:21:32;;;;;;;40.35;16.02;;;;;;;;;;5074628;28;20035;-59
2021/11/13 08:24:03;;;;;;;44.25;16.50;;;;;;;;;;5073440;28;20173;-61
2021/11/13 08:26:33;;;;;;;32.08;15.60;;;;;;;;;;5078256;28;20162;-60
2021/11/13 08:28:58;;;;;;;29.77;14.77;;;;;;;;;;5074018;28;20097;-60
2021/11/13 08:31:23;;;;;;;31.58;15.15;;;;;;;;;;5073593;28;20028;-61
2021/11/13 08:33:54;;;;;;;29.98;15.60;;;;;;;;;;5075692;27;20039;-59
2021/11/13 08:36:22;;;;;;;37.63;15.50;;;;;;;;;;5078247;28;20031;-60
2021/11/13 08:38:50;;;;;;;30.92;15.10;;;;;;;;;;5072693;27;20028;-61
2021/11/13 08:41:23;;;;;;;34.58;14.95;;;;;;;;;;5075847;28;20502;-60
2021/11/13 08:43:51;;;;;;;29.45;14.52;;;;;;;;;;5078650;28;20911;-60
2021/11/13 08:46:19;;;;;;;26.75;14.00;;;;;;;;;;5079903;28;20061;-60
2021/11/13 08:48:45;;;;;;;31.00;14.98;;;;;;;;;;5065395;28;20081;-59
2021/11/13 08:51:10;;;;;;;30.17;14.80;;;;;;;;;;5057876;28;20028;-60
2021/11/13 08:53:38;;;;;;;27.88;15.75;;;;;;;;;;5075574;28;20043;-58
2021/11/13 08:56:04;;;;;;;32.70;14.98;;;;;;;;;;5078339;28;20043;-58
2021/11/13 08:58:32;;;;;;;26.50;13.02;;;;;;;;;;5073980;28;20043;-58
2021/11/13 09:01:02;;;;;;;27.80;14.68;;;;;;;;;;5074813;27;20059;-59
2021/11/13 09:03:37;;;;;;;27.98;14.10;;;;;;;;;;5074974;27;20024;-59
2021/11/13 09:06:08;;;;;;;27.45;14.32;;;;;;;;;;5074513;28;20036;-59
2021/11/13 09:08:34;;;;;;;28.33;14.75;;;;;;;;;;5061466;28;20051;-59
2021/11/13 09:11:05;;;;;;;27.48;14.32;;;;;;;;;;5074489;28;20020;-60
2021/11/13 09:13:31;;;;;;;28.98;14.02;;;;;;;;;;5075565;28;20146;-59
2021/11/13 09:16:01;;;;;;;31.70;15.07;;;;;;;;;;5073353;28;20495;-58
2021/11/13 09:18:31;;;;;;;41.28;16.20;;;;;;;;;;5089553;27;20032;-58
2021/11/13 09:21:02;;;;;;;35.90;15.90;;;;;;;;;;5075836;28;20116;-58
2021/11/13 09:23:30;;;;;;;26.85;14.75;;;;;;;;;;5076174;28;20028;-58
2021/11/13 09:25:58;;;;;;;28.15;14.95;;;;;;;;;;5076477;28;20098;-58
2021/11/13 09:28:28;;;;;;;25.17;13.55;;;;;;;;;;5075401;28;20050;-59
2021/11/13 09:30:54;;;;;;;33.30;14.40;;;;;;;;;;5072737;28;20186;-59
2021/11/13 09:33:25;;;;;;;24.52;13.43;;;;;;;;;;5072763;28;20028;-59
2021/11/13 09:35:53;;;;;;;32.70;15.73;;;;;;;;;;5074534;28;22079;-59
2021/11/13 09:38:21;;;;;;;34.83;15.68;;;;;;;;;;5079784;28;20968;-60
2021/11/13 09:40:52;;;;;;;27.08;13.82;;;;;;;;;;5078824;28;20483;-58
2021/11/13 09:43:22;;;;;;;27.63;13.70;;;;;;;;;;5076084;28;20024;-59
2021/11/13 09:45:48;;;;;;;30.83;13.75;;;;;;;;;;5077072;28;20387;-59
2021/11/13 09:48:19;;;;;;;24.73;13.52;;;;;;;;;;5079694;28;20040;-59
2021/11/13 09:50:49;;;;;;;26.92;13.68;;;;;;;;;;5077559;28;20039;-61
2021/11/13 09:53:15;;;;;;;27.23;13.45;;;;;;;;;;5078960;28;20114;-59
2021/11/13 09:55:44;;;;;;;31.38;13.00;;;;;;;;;;5079747;27;20035;-59
2021/11/13 09:58:10;;;;;;;27.70;12.90;;;;;;;;;;5080089;27;20071;-59
2021/11/13 10:00:40;;;;;;;30.98;13.98;;;;;;;;;;5078231;28;20155;-59
2021/11/13 10:03:09;;;;;;;28.52;13.18;;;;;;;;;;5078225;28;20033;-58
2021/11/13 10:05:42;;;;;;;29.30;13.98;;;;;;;;;;5078749;28;20883;-59
2021/11/13 10:08:09;;;;;;;26.73;13.85;;;;;;;;;;5085154;27;20070;-59
2021/11/13 10:10:36;;;;;;;25.15;13.27;;;;;;;;;;5077915;28;20046;-59
2021/11/13 10:13:05;;;;;;;28.42;14.52;;;;;;;;;;5078061;28;20036;-61
2021/11/13 10:15:35;;;;;;;34.03;14.35;;;;;;;;;;5083558;27;20036;-60
2021/11/13 10:18:03;;;;;;;23.98;13.02;;;;;;;;;;5077671;27;20035;-60
2021/11/13 10:20:33;;;;;;;25.55;13.55;;;;;;;;;;5076929;28;20035;-58
2021/11/13 10:23:02;;;;;;;22.90;13.57;;;;;;;;;;5079505;28;20025;-58
2021/11/13 10:25:27;;;;;;;25.52;13.30;;;;;;;;;;5078104;27;20024;-58
2021/11/13 10:28:15;;;;;;;19.23;12.27;;;;;;;;;;5080233;28;20087;-58
2021/11/13 10:30:42;;;;;;;23.90;12.05;;;;;;;;;;5075423;28;20059;-58
2021/11/13 10:33:11;;;;;;;25.02;13.07;;;;;;;;;;5078636;28;20118;-58
2021/11/13 10:35:56;;;;;;;24.25;12.13;;;;;;;;;;5076800;28;20071;-58
2021/11/13 10:38:24;;;;;;;20.98;12.40;;;;;;;;;;5077212;28;20691;-58
2021/11/13 10:40:52;;;;;;;21.77;11.93;;;;;;;;;;5075572;28;20044;-58
2021/11/13 10:43:31;;;;;;;22.58;11.90;;;;;;;;;;5077296;28;20446;-58
2021/11/13 10:45:58;;;;;;;21.30;11.40;;;;;;;;;;5076056;27;20055;-58
2021/11/13 10:48:26;;;;;;;17.17;11.07;;;;;;;;;;5093148;27;20028;-58
2021/11/13 10:50:59;;;;;;;27.13;11.40;;;;;;;;;;5066440;28;20088;-58
2021/11/13 10:53:25;;;;;;;22.77;11.27;;;;;;;;;;5092378;27;20032;-58
2021/11/13 10:56:21;;;;;;;17.98;10.77;;;;;;;;;;5079431;28;20102;-58
2021/11/13 10:58:59;;;;;;;16.88;10.52;;;;;;;;;;5076165;27;20638;-60
2021/11/13 11:01:28;;;;;;;15.52;9.98;;;;;;;;;;5082598;28;20100;-59
2021/11/13 11:03:57;;;;;;;16.20;9.75;;;;;;;;;;5076172;28;21959;-59
2021/11/13 11:06:30;;;;;;;15.65;9.57;;;;;;;;;;5076426;28;20039;-59
2021/11/13 11:08:55;;;;;;;19.55;10.52;;;;;;;;;;5074180;28;20037;-60
2021/11/13 11:11:26;;;;;;;18.33;10.38;;;;;;;;;;5077110;28;20187;-59
2021/11/13 11:13:57;;;;;;;20.35;10.68;;;;;;;;;;5078259;28;20043;-60
2021/11/13 11:16:26;;;;;;;16.15;9.60;;;;;;;;;;5076189;28;20028;-59
2021/11/13 11:19:03;;;;;;;21.35;10.25;;;;;;;;;;5075359;28;20031;-59
2021/11/13 11:21:38;;;;;;;21.00;10.20;;;;;;;;;;5061741;28;20051;-59
2021/11/13 11:24:15;;;;;;;20.33;10.60;;;;;;;;;;5075373;28;20030;-59
2021/11/13 11:26:44;;;;;;;15.82;9.95;;;;;;;;;;5076045;28;20028;-59
2021/11/13 11:29:10;;;;;;;20.05;10.68;;;;;;;;;;5089892;27;20032;-61
2021/11/13 11:31:47;;;;;;;22.38;10.63;;;;;;;;;;5075424;28;20092;-60
2021/11/13 11:34:30;;;;;;;23.52;10.50;;;;;;;;;;5076124;28;20039;-57
2021/11/13 11:36:59;;;;;;;17.15;9.63;;;;;;;;;;5077925;28;20458;-60
2021/11/13 11:39:25;;;;;;;20.98;10.77;;;;;;;;;;5076503;28;20030;-59
2021/11/13 11:41:51;;;;;;;21.92;11.63;;;;;;;;;;5080480;28;20036;-59
2021/11/13 11:44:17;;;;;;;21.42;12.07;;;;;;;;;;5072461;28;20059;-60
2021/11/13 11:46:44;;;;;;;19.33;11.25;;;;;;;;;;5076675;27;20842;-60
2021/11/13 11:49:10;;;;;;;19.88;11.32;;;;;;;;;;5074098;28;20105;-60
2021/11/13 11:51:42;;;;;;;17.73;11.25;;;;;;;;;;5075932;28;20020;-60
2021/11/13 11:54:09;;;;;;;16.42;10.57;;;;;;;;;;5075000;27;20036;-60
2021/11/13 11:56:37;;;;;;;16.70;9.85;;;;;;;;;;5076810;28;20052;-59
2021/11/13 11:59:06;;;;;;;18.38;9.65;;;;;;;;;;5074299;28;20035;-60
2021/11/13 12:01:34;;;;;;;14.13;9.45;;;;;;;;;;5074269;28;20020;-60
2021/11/13 12:04:21;;;;;;;23.40;10.80;;;;;;;;;;5089319;27;21850;-59
2021/11/13 12:06:50;;;;;;;17.42;10.15;;;;;;;;;;5075828;28;20046;-59
2021/11/13 12:09:16;;;;;;;17.17;9.70;;;;;;;;;;5071776;28;20035;-61
2021/11/13 12:11:43;;;;;;;16.00;9.77;;;;;;;;;;5074997;28;20036;-60
2021/11/13 12:14:23;;;;;;;14.65;8.63;;;;;;;;;;5071675;28;22008;-60
2021/11/13 12:16:49;;;;;;;19.38;9.82;;;;;;;;;;5074947;28;20032;-59
2021/11/13 12:19:15;;;;;;;19.65;9.40;;;;;;;;;;5080644;28;20051;-59
2021/11/13 12:21:54;;;;;;;18.42;8.77;;;;;;;;;;5063856;28;20028;-59
2021/11/13 12:24:22;;;;;;;12.25;8.18;;;;;;;;;;5075709;28;20032;-60
2021/11/13 12:26:58;;;;;;;15.35;9.30;;;;;;;;;;5076372;27;20030;-58
2021/11/13 12:29:29;;;;;;;12.73;8.20;;;;;;;;;;5074922;27;20627;-58
2021/11/13 12:31:56;;;;;;;18.27;8.10;;;;;;;;;;5074076;27;20040;-60
2021/11/13 12:34:31;;;;;;;13.70;8.77;;;;;;;;;;5075349;28;20148;-60
2021/11/13 12:36:59;;;;;;;17.70;9.13;;;;;;;;;;5080054;28;20123;-60
2021/11/13 12:39:26;;;;;;;14.82;8.60;;;;;;;;;;5074946;28;20032;-59
2021/11/13 12:42:03;;;;;;;17.90;8.77;;;;;;;;;;5074310;28;20032;-58
2021/11/13 12:44:28;;;;;;;;;;;;;;;;;;5077113;27;20119;-63
2021/11/13 12:47:05;;;;;;;13.15;7.78;;;;;;;;;;5081007;27;20103;-60
2021/11/13 12:49:30;;;;;;;18.63;8.82;;;;;;;;;;5080740;28;20223;-60
2021/11/13 12:51:59;;;;;;;14.05;7.93;;;;;;;;;;5074718;28;20016;-60
2021/11/13 12:54:26;;;;;;;13.93;7.57;;;;;;;;;;5089101;27;20155;-60
2021/11/13 12:57:13;;;;;;;13.95;7.60;;;;;;;;;;5033786;28;20056;-60
2021/11/13 12:59:43;;;;;;;15.27;7.40;;;;;;;;;;5031583;28;20531;-59
2021/11/13 13:02:14;;;;;;;15.07;8.15;;;;;;;;;;5033354;28;20075;-60
2021/11/13 13:04:45;;;;;;;14.13;7.38;;;;;;;;;;5031650;28;20028;-58
2021/11/13 13:07:13;;;;;;;14.82;8.38;;;;;;;;;;5019574;28;20029;-59
2021/11/13 13:09:52;;;;;;;15.43;8.27;;;;;;;;;;5036124;28;20029;-60
2021/11/13 13:12:18;;;;;;;13.32;7.50;;;;;;;;;;5038930;28;20041;-59
2021/11/13 13:14:44;;;;;;;14.88;8.02;;;;;;;;;;5032864;28;20079;-59
2021/11/13 13:17:19;;;;;;;14.07;8.13;;;;;;;;;;5034350;28;20055;-61
2021/11/13 13:19:44;;;;;;;16.02;8.27;;;;;;;;;;5020512;28;20040;-60
2021/11/13 13:22:14;;;;;;;19.08;8.70;;;;;;;;;;5036181;28;20155;-60
2021/11/13 13:24:39;;;;;;;17.90;8.07;;;;;;;;;;5041838;28;20039;-59
2021/11/13 13:27:13;;;;;;;16.15;8.55;;;;;;;;;;5036518;28;20059;-59
2021/11/13 13:29:41;;;;;;;16.80;8.65;;;;;;;;;;5029441;28;20041;-59
2021/11/13 13:32:08;;;;;;;22.55;8.77;;;;;;;;;;5016605;28;20039;-60
2021/11/13 13:34:51;;;;;;;20.35;8.55;;;;;;;;;;5032216;28;20039;-59
2021/11/13 13:37:23;;;;;;;15.38;8.35;;;;;;;;;;5033692;28;20020;-60
2021/11/13 13:39:52;;;;;;;15.30;8.52;;;;;;;;;;5034719;28;20496;-60
2021/11/13 13:42:29;;;;;;;14.70;8.20;;;;;;;;;;5033123;28;20025;-60
2021/11/13 13:44:55;;;;;;;14.88;8.00;;;;;;;;;;5028997;28;20090;-60
2021/11/13 13:47:29;;;;;;;17.13;8.90;;;;;;;;;;5033876;28;20025;-60
2021/11/13 13:49:58;;;;;;;17.15;9.30;;;;;;;;;;5031344;28;20033;-59
2021/11/13 13:52:38;;;;;;;14.52;7.70;;;;;;;;;;5031546;28;20025;-58
2021/11/13 13:55:10;;;;;;;16.27;8.77;;;;;;;;;;5032961;28;20492;-60
2021/11/13 13:57:35;;;;;;;15.05;8.50;;;;;;;;;;5070825;28;20051;-59
2021/11/13 14:00:07;;;;;;;13.13;7.85;;;;;;;;;;5069223;28;20026;-60
2021/11/13 14:02:39;;;;;;;22.30;8.10;;;;;;;;;;5072248;28;20055;-60
2021/11/13 14:05:07;;;;;;;14.80;7.57;;;;;;;;;;5079154;28;20029;-60
2021/11/13 14:07:35;;;;;;;13.85;8.43;;;;;;;;;;5076581;28;20035;-58
2021/11/13 14:10:05;;;;;;;20.02;8.88;;;;;;;;;;5080046;28;20071;-60
2021/11/13 14:12:46;;;;;;;17.25;8.48;;;;;;;;;;5072067;28;20044;-60
2021/11/13 14:15:19;;;;;;;17.75;8.52;;;;;;;;;;5077441;28;20159;-59
2021/11/13 14:18:07;;;;;;;16.20;8.80;;;;;;;;;;5074698;28;20063;-59
2021/11/13 14:20:34;;;;;;;16.38;8.07;;;;;;;;;;5072073;28;20104;-59
2021/11/13 14:23:07;;;;;;;15.50;7.60;;;;;;;;;;5075051;28;20020;-60
2021/11/13 14:25:42;;;;;;;13.23;8.35;;;;;;;;;;5093764;27;20028;-60
2021/11/13 14:28:08;;;;;;;14.00;8.32;;;;;;;;;;5077669;28;20027;-60
2021/11/13 14:30:41;;;;;;;16.58;8.95;;;;;;;;;;5075241;27;20034;-59
2021/11/13 14:33:09;;;;;;;17.15;9.45;;;;;;;;;;5077467;27;20039;-60
2021/11/13 14:35:34;;;;;;;16.50;9.27;;;;;;;;;;5075258;28;20078;-60
2021/11/13 14:38:05;;;;;;;14.82;7.68;;;;;;;;;;5076377;27;20831;-60
2021/11/13 14:40:31;;;;;;;17.67;7.95;;;;;;;;;;5064468;27;20418;-59
2021/11/13 14:42:58;;;;;;;15.65;7.97;;;;;;;;;;5078358;28;20036;-60
2021/11/13 14:45:43;;;;;;;17.27;7.95;;;;;;;;;;5075763;27;20718;-60
2021/11/13 14:48:14;;;;;;;13.73;7.37;;;;;;;;;;5078001;28;20072;-60